Архив погоды в Дно

Метеограмма Дно
Понедельник, 17 Июня
Время местн. Темп Ветер Видим Явления Облачность нижн/средн/верх Атм. давл. Влжн Точка росы ВНГО R Сост. почвы Tg s
Напр Скр Прв ур.ст ур.м изм
03:00 - +7.6° штиль 0 - - - - 756 762 -0.2 98% +7.3° - - - - -
00:00 - +10.9° штиль 0 - - - - 756 762 +0.2 97% +10.4° - - - - -
Воскресенье, 16 Июня
Время местн. Темп Ветер Видим Явления Облачность нижн/средн/верх Атм. давл. Влжн Точка росы ВНГО R Сост. почвы Tg s
Напр Скр Прв ур.ст ур.м изм
21:00 +22.1° З 1 - 50 км - ясно 756 761 -0.2 64% +15° более 2.5 км 0 - - -
18:00 - +25.5° З 2 - - - - 756 761 -0.7 41% +11.2° - - - - -
15:00 - +24.7° С,С-З 1 - - - - 756 762 -1 46% +12.3° - - - - -
12:00 - +22.9° З,Ю-З 1 - - - - 757 763 -0.2 51% +12.3° - - - - -
09:00 +18.8° Ю,Ю-З 2 - 50 км - ясно 757 763 +0.4 77% +14.7° более 2.5 км 2 Влажная (без луж) - -
06:00 - +11° штиль 0 - - - - 757 763 -0.4 98% +10.7° - - - - -
03:00 - +8.1° штиль 0 - - - - 757 763 +0.5 98% +7.8° - - - - -
00:00 - +12.4° штиль 0 - - - - 757 763 +0.5 97% +11.9° - - - - -
Суббота, 15 Июня
Время местн. Темп Ветер Видим Явления Облачность нижн/средн/верх Атм. давл. Влжн Точка росы ВНГО R Сост. почвы Tg s
Напр Скр Прв ур.ст ур.м изм
21:00 +17.4° штиль 0 - 50 км - переменная облачность 757 762 -0.3 81% +14.2° 1 км 0 - - -
18:00 - +22.6° С 3 - - - - 757 762 -0.6 53% +12.5° - - - - -
15:00 - +21.5° З 4 - - - - 757 763 -0.5 60% +13.5° - - - - -
12:00 - +17.5° З,С-З 3 - - - - 758 764 -0.1 73% +12.7° - - - - -
09:00 +15° З 2 - 50 км - облачно 758 764 +0.5 87% +12.8° 1 км 0 Сухая (без трещин) - -
06:00 - +15° З,С-З 3 - - - - 758 763 +0.5 91% +13.6° - - - - -
03:00 - +17.1° З 2 - - - - 757 763 -0.2 91% +15.6° - - - - -
00:00 - +19° З,С-З 2 - - - - 757 763 +0.9 82% +15.9° - - - - -
Пятница, 14 Июня
Время местн. Темп Ветер Видим Явления Облачность нижн/средн/верх Атм. давл. Влжн Точка росы ВНГО R Сост. почвы Tg s
Напр Скр Прв ур.ст ур.м изм
21:00 +21.4° З,С-З 1 - 50 км - переменная облачность 756 762 0 75% +16.8° - 0 - - -
18:00 - +23.9° З 3 - - - - 756 762 -0.1 67% +17.3° - - - - -
15:00 - +26.2° З 4 - - - - 756 762 +0.3 60% +17.8° - - - - -
12:00 - +25.2° З,С-З 4 - - - - 756 762 -0.2 64% +17.9° - - - - -
09:00 +21.4° Ю-З 2 - 50 км - незначительная облачность 756 762 -0.8 83% +18.4° - 0.4 Влажная (без луж) - -
06:00 - +17.3° Ю,Ю-В 1 - - - - 757 763 -0.8 94% +16.4° - - - - -
03:00 - +18.4° Ю 1 - - - - 758 764 -0.9 84% +15.6° - - - - -
00:00 - +17.9° В,Ю-В 1 - - - - 759 765 -0.6 80% +14.4° - - - - -